Time;durP1;ratioP1;P1;durP2;ratioP2;P2;SDS_P1;SDS_P2;PMS_P1;PMS_P2;Temp;Humidity;BMP_temperature;BMP_pressure;BME280_temperature;BME280_humidity;BME280_pressure;Samples;Min_cycle;Max_cycle;Signal;HPM_P1;HPM_P2
2023/04/04 00:01:32;;;;;;;4.20;3.73;;;7.40;99.90;;;;;;4771201;30;20265;-96
2023/04/04 00:03:58;;;;;;;5.53;3.53;;;7.50;99.90;;;;;;4773670;30;20188;-95
2023/04/04 00:06:24;;;;;;;5.10;1.70;;;7.70;99.90;;;;;;4777679;30;20605;-92
2023/04/04 00:08:50;;;;;;;5.23;3.97;;;7.70;99.90;;;;;;4773702;30;20762;-96
2023/04/04 00:11:15;;;;;;;7.60;3.47;;;7.50;99.90;;;;;;4771059;30;20216;-96
2023/04/04 00:13:41;;;;;;;7.03;4.00;;;7.30;99.90;;;;;;4771117;30;20665;-95
2023/04/04 00:16:07;;;;;;;3.30;2.37;;;7.10;99.90;;;;;;4771988;30;20256;-94
2023/04/04 00:18:33;;;;;;;4.47;3.80;;;7.50;99.90;;;;;;4770911;30;20187;-93
2023/04/04 00:20:59;;;;;;;4.87;4.27;;;7.60;99.90;;;;;;4770834;30;20463;-94
2023/04/04 00:23:24;;;;;;;5.50;2.60;;;7.50;99.90;;;;;;4771815;30;20488;-95
2023/04/04 00:25:51;;;;;;;6.20;3.90;;;7.60;99.90;;;;;;4771181;30;20304;-96
2023/04/04 00:28:18;;;;;;;6.18;4.60;;;7.70;99.90;;;;;;4772708;30;20255;-96
2023/04/04 00:30:45;;;;;;;5.43;3.85;;;7.70;99.90;;;;;;4771051;30;20221;-94
2023/04/04 00:33:10;;;;;;;4.55;4.15;;;7.50;99.90;;;;;;4771343;30;20203;-94
2023/04/04 00:35:36;;;;;;;4.03;3.63;;;7.30;99.90;;;;;;4774603;30;20184;-93
2023/04/04 00:38:02;;;;;;;5.27;3.57;;;7.20;99.90;;;;;;4770839;30;20261;-96
2023/04/04 00:40:27;;;;;;;10.20;4.17;;;7.00;99.90;;;;;;4771495;30;20463;-96
2023/04/04 00:42:54;;;;;;;7.80;3.80;;;7.10;99.90;;;;;;4771018;30;20289;-96
2023/04/04 00:45:20;;;;;;;5.72;3.78;;;7.00;99.90;;;;;;4771040;30;20232;-93
2023/04/04 00:47:46;;;;;;;9.02;3.35;;;6.80;99.90;;;;;;4775955;30;20212;-95
2023/04/04 00:50:12;;;;;;;4.63;3.30;;;6.70;99.90;;;;;;4771811;30;20253;-93
2023/04/04 00:52:38;;;;;;;5.37;3.83;;;6.70;99.90;;;;;;4775337;30;20203;-93
2023/04/04 00:55:04;;;;;;;3.40;3.10;;;6.90;99.90;;;;;;4774317;30;20245;-96
2023/04/04 00:57:33;;;;;;;4.28;3.50;;;6.80;99.90;;;;;;4773977;30;20444;-96
2023/04/04 01:00:01;;;;;;;6.13;3.67;;;7.10;99.90;;;;;;4773878;30;20216;-96
2023/04/04 01:02:27;;;;;;;9.15;4.75;;;6.90;99.90;;;;;;4774052;30;20576;-96
2023/04/04 01:04:53;;;;;;;4.83;3.90;;;6.90;99.90;;;;;;4774079;30;20215;-94
2023/04/04 01:07:19;;;;;;;5.27;4.13;;;6.80;99.90;;;;;;4773928;30;20243;-96
2023/04/04 01:09:45;;;;;;;5.17;3.73;;;6.80;99.90;;;;;;4774032;30;20550;-93
2023/04/04 01:12:11;;;;;;;6.80;4.10;;;6.60;99.90;;;;;;4774568;30;20980;-95
2023/04/04 01:14:36;;;;;;;6.13;4.07;;;6.50;99.90;;;;;;4774717;30;20184;-96
2023/04/04 01:17:02;;;;;;;5.77;4.00;;;6.40;99.90;;;;;;4774030;30;20294;-95
2023/04/04 01:19:37;;;;;;;5.90;3.80;;;6.40;99.90;;;;;;4774533;30;20191;-95
2023/04/04 01:22:04;;;;;;;9.52;4.00;;;6.30;99.90;;;;;;4779981;30;20458;-93
2023/04/04 01:24:33;;;;;;;6.13;3.80;;;6.30;99.90;;;;;;4776048;30;20180;-96
2023/04/04 01:27:01;;;;;;;4.60;4.10;;;6.30;99.90;;;;;;4780484;30;20317;-93
2023/04/04 01:29:27;;;;;;;8.55;4.68;;;6.30;99.90;;;;;;4777551;30;20311;-96
2023/04/04 01:32:03;;;;;;;5.50;4.40;;;6.40;99.90;;;;;;4773734;30;20219;-96
2023/04/04 01:34:56;;;;;;;5.68;4.00;;;6.40;99.90;;;;;;4773819;30;20190;-96
2023/04/04 01:37:46;;;;;;;5.05;4.47;;;6.20;99.90;;;;;;4773758;30;20685;-96
2023/04/04 01:40:17;;;;;;;7.18;3.72;;;6.10;99.90;;;;;;4773467;30;20196;-96
2023/04/04 01:42:47;;;;;;;6.03;4.30;;;6.00;99.90;;;;;;4773424;30;20207;-95
2023/04/04 01:45:13;;;;;;;4.18;3.78;;;5.90;99.90;;;;;;4773612;30;20262;-94
2023/04/04 01:47:40;;;;;;;6.90;3.70;;;5.90;99.90;;;;;;4773369;30;20674;-95
2023/04/04 01:50:10;;;;;;;5.65;4.03;;;6.00;99.90;;;;;;4773267;30;20677;-93
2023/04/04 01:52:36;;;;;;;7.90;4.13;;;5.90;99.90;;;;;;4773242;30;20220;-96
2023/04/04 01:55:03;;;;;;;6.18;4.22;;;5.80;99.90;;;;;;4773385;30;20192;-94
2023/04/04 01:57:29;;;;;;;4.53;4.13;;;5.80;99.90;;;;;;4773504;30;20295;-94
2023/04/04 01:59:55;;;;;;;4.57;3.38;;;5.80;99.90;;;;;;4773488;30;20187;-93
2023/04/04 02:02:22;;;;;;;5.22;3.17;;;5.80;99.90;;;;;;4773691;30;20265;-94
2023/04/04 02:04:48;;;;;;;5.40;4.05;;;5.70;99.90;;;;;;4773006;30;20255;-94
2023/04/04 02:07:13;;;;;;;5.15;4.15;;;5.60;99.90;;;;;;4773013;30;20292;-94
2023/04/04 02:09:40;;;;;;;5.83;4.00;;;5.60;99.90;;;;;;4785768;30;20203;-93
2023/04/04 02:12:07;;;;;;;4.53;3.78;;;5.50;99.90;;;;;;4784862;30;20255;-93
2023/04/04 02:14:33;;;;;;;7.05;4.82;;;5.40;99.90;;;;;;4778884;30;20204;-96
2023/04/04 02:16:59;;;;;;;4.75;3.70;;;5.30;99.90;;;;;;4777230;30;20219;-93
2023/04/04 02:19:25;;;;;;;5.95;4.05;;;5.40;99.90;;;;;;4782967;30;20218;-93
2023/04/04 02:21:51;;;;;;;5.27;3.90;;;5.40;99.90;;;;;;4782319;30;20219;-94
2023/04/04 02:24:16;;;;;;;5.40;4.07;;;5.40;99.90;;;;;;4775858;30;20188;-95
2023/04/04 02:26:42;;;;;;;5.57;3.57;;;5.40;99.90;;;;;;4771671;30;20527;-94
2023/04/04 02:29:08;;;;;;;9.23;4.60;;;5.40;99.90;;;;;;4771871;30;20661;-96
2023/04/04 02:31:34;;;;;;;6.90;4.50;;;5.40;99.90;;;;;;4772230;30;20218;-96
2023/04/04 02:34:00;;;;;;;5.88;4.93;;;5.40;99.90;;;;;;4772687;30;20184;-96
2023/04/04 02:36:26;;;;;;;6.73;4.80;;;5.30;99.90;;;;;;4771620;30;20220;-96
2023/04/04 02:38:52;;;;;;;7.82;4.45;;;5.30;99.90;;;;;;4771559;30;20283;-93
2023/04/04 02:41:18;;;;;;;4.33;3.40;;;5.30;99.90;;;;;;4771656;30;20207;-96
2023/04/04 02:43:43;;;;;;;6.00;3.63;;;5.30;99.90;;;;;;4771578;30;20192;-94
2023/04/04 02:46:09;;;;;;;4.83;4.33;;;5.30;99.90;;;;;;4771933;30;20322;-94
2023/04/04 02:48:35;;;;;;;4.67;4.20;;;5.20;99.90;;;;;;4771786;30;20184;-93
2023/04/04 02:51:01;;;;;;;4.73;3.60;;;5.20;99.90;;;;;;4771521;30;20191;-96
2023/04/04 02:53:27;;;;;;;6.10;3.80;;;5.20;99.90;;;;;;4771415;30;20184;-96
2023/04/04 02:55:52;;;;;;;5.30;4.17;;;5.20;99.90;;;;;;4771656;30;20203;-96
2023/04/04 02:58:18;;;;;;;6.20;4.50;;;5.20;99.90;;;;;;4771556;30;20431;-94
2023/04/04 03:00:46;;;;;;;5.30;4.17;;;5.30;99.90;;;;;;4771445;30;20191;-93
2023/04/04 03:03:11;;;;;;;6.57;3.92;;;5.30;99.90;;;;;;4771296;30;20194;-94
2023/04/04 03:05:37;;;;;;;6.07;4.00;;;5.30;99.90;;;;;;4771050;30;20255;-93
2023/04/04 03:08:03;;;;;;;4.55;4.15;;;5.30;99.90;;;;;;4719351;30;1309953;-94
2023/04/04 03:10:30;;;;;;;4.97;3.40;;;5.30;99.90;;;;;;4784011;30;20196;-96
2023/04/04 03:12:56;;;;;;;6.45;4.07;;;5.40;99.90;;;;;;4776760;30;20251;-93
2023/04/04 03:15:25;;;;;;;5.50;3.67;;;5.40;99.90;;;;;;4772512;30;20207;-94
2023/04/04 03:17:51;;;;;;;6.60;4.82;;;5.40;99.90;;;;;;4771587;30;20222;-93
2023/04/04 03:20:17;;;;;;;6.93;4.43;;;5.40;99.90;;;;;;4771993;30;20184;-94
2023/04/04 03:22:43;;;;;;;7.63;4.60;;;5.40;99.90;;;;;;4772450;30;20216;-93
2023/04/04 03:25:09;;;;;;;4.83;3.53;;;5.30;99.90;;;;;;4771646;30;20234;-93
2023/04/04 03:27:35;;;;;;;6.73;4.53;;;5.30;99.90;;;;;;4772686;30;20544;-94
2023/04/04 03:30:01;;;;;;;5.73;4.30;;;5.30;99.90;;;;;;4775589;30;20432;-96
2023/04/04 03:32:27;;;;;;;5.47;4.32;;;5.40;99.90;;;;;;4772327;30;20593;-96
2023/04/04 03:34:52;;;;;;;7.40;4.30;;;5.40;99.90;;;;;;4771386;30;20212;-95
2023/04/04 03:37:18;;;;;;;6.40;4.70;;;5.40;99.90;;;;;;4771509;30;20460;-94
2023/04/04 03:39:44;;;;;;;5.97;4.37;;;5.50;99.90;;;;;;4771698;30;20193;-96
2023/04/04 03:42:11;;;;;;;5.28;4.50;;;5.40;99.90;;;;;;4772016;30;20284;-94
2023/04/04 03:44:40;;;;;;;5.22;3.60;;;5.40;99.90;;;;;;4772187;30;20238;-94
2023/04/04 03:47:06;;;;;;;7.97;4.15;;;5.40;99.90;;;;;;4757012;30;20255;-94
2023/04/04 03:49:34;;;;;;;4.47;3.70;;;5.40;99.90;;;;;;4753360;30;20650;-95
2023/04/04 03:52:01;;;;;;;6.85;4.43;;;5.40;99.90;;;;;;4753483;30;20485;-96
2023/04/04 03:54:28;;;;;;;8.07;4.25;;;5.30;99.90;;;;;;4753519;30;20195;-96
2023/04/04 03:56:54;;;;;;;6.72;3.65;;;5.20;99.90;;;;;;4767690;30;20269;-96
2023/04/04 03:59:20;;;;;;;7.28;4.07;;;5.10;99.90;;;;;;4772230;30;20192;-96
2023/04/04 04:01:46;;;;;;;8.40;4.10;;;5.10;99.90;;;;;;4771242;30;20260;-96
2023/04/04 04:04:12;;;;;;;5.63;3.90;;;5.10;99.90;;;;;;4772523;30;20413;-94
2023/04/04 04:06:37;;;;;;;8.73;4.23;;;5.10;99.90;;;;;;4771524;30;20257;-96
2023/04/04 04:09:03;;;;;;;8.07;4.70;;;5.10;99.90;;;;;;4770711;30;20259;-93
2023/04/04 04:11:29;;;;;;;5.70;4.23;;;5.00;99.90;;;;;;4770751;30;20568;-93
2023/04/04 04:13:55;;;;;;;5.30;4.25;;;5.00;99.90;;;;;;4765448;30;20203;-93
2023/04/04 04:16:21;;;;;;;7.90;4.37;;;5.10;99.90;;;;;;4771306;30;20581;-96
2023/04/04 04:18:47;;;;;;;4.90;3.72;;;5.30;99.90;;;;;;4771730;30;20188;-94
2023/04/04 04:21:13;;;;;;;5.47;4.28;;;5.80;99.90;;;;;;4756788;30;20208;-93
2023/04/04 04:23:39;;;;;;;7.17;4.87;;;6.60;99.90;;;;;;4763272;30;20550;-95
2023/04/04 04:26:05;;;;;;;6.73;4.50;;;7.10;99.90;;;;;;4770497;30;21013;-93
2023/04/04 04:28:31;;;;;;;5.57;3.70;;;7.60;99.90;;;;;;4772101;30;20646;-96
2023/04/04 04:31:04;;;;;;;11.97;7.20;;;7.80;99.90;;;;;;4770449;30;20195;-93
2023/04/04 04:33:29;;;;;;;9.60;3.70;;;8.20;99.90;;;;;;4769074;30;20264;-96
2023/04/04 04:36:03;;;;;;;4.87;4.10;;;8.50;99.90;;;;;;4768420;30;20245;-96
2023/04/04 04:38:29;;;;;;;6.32;4.72;;;8.60;99.90;;;;;;4766832;30;20188;-96
2023/04/04 04:40:55;;;;;;;8.30;5.10;;;8.60;99.90;;;;;;4758847;30;20188;-93
2023/04/04 04:43:21;;;;;;;12.10;4.90;;;8.80;99.90;;;;;;4763946;30;20969;-94
2023/04/04 04:45:47;;;;;;;7.03;4.90;;;8.80;99.90;;;;;;4769409;30;20231;-93
2023/04/04 04:48:15;;;;;;;7.20;4.93;;;9.10;99.90;;;;;;4770740;30;20425;-96
2023/04/04 04:50:43;;;;;;;9.95;5.88;;;9.40;99.90;;;;;;4770784;30;20438;-94
2023/04/04 04:53:09;;;;;;;7.85;4.50;;;9.40;99.90;;;;;;4769703;30;20285;-93
2023/04/04 04:55:35;;;;;;;8.52;5.60;;;9.50;99.90;;;;;;4770886;30;20568;-96
2023/04/04 04:58:03;;;;;;;8.57;5.50;;;9.60;99.90;;;;;;4766416;29;20217;-93
2023/04/04 05:00:28;;;;;;;6.70;5.53;;;9.70;99.90;;;;;;4760539;30;20436;-93
2023/04/04 05:02:55;;;;;;;7.93;5.70;;;9.60;99.90;;;;;;4770349;30;20246;-94
2023/04/04 05:05:21;;;;;;;6.20;5.25;;;9.70;99.90;;;;;;4769063;30;20212;-93
2023/04/04 05:07:47;;;;;;;2.92;2.72;;;9.70;99.90;;;;;;4756801;30;20235;-96
2023/04/04 05:10:13;;;;;;;4.40;4.00;;;9.30;99.90;;;;;;4768259;30;20238;-94
2023/04/04 05:12:43;;;;;;;21.90;12.33;;;8.40;99.90;;;;;;4768786;30;20451;-96
2023/04/04 05:15:10;;;;;;;9.20;5.95;;;7.60;99.90;;;;;;4767173;30;20565;-92
2023/04/04 05:17:36;;;;;;;7.40;4.60;;;7.10;99.90;;;;;;4769294;30;20298;-94
2023/04/04 05:20:02;;;;;;;8.25;5.00;;;6.70;99.90;;;;;;4770184;30;20184;-96
2023/04/04 05:22:28;;;;;;;5.25;4.40;;;6.40;99.90;;;;;;4768107;30;20224;-93
2023/04/04 05:24:54;;;;;;;5.20;4.10;;;6.20;99.90;;;;;;4771615;30;20276;-94
2023/04/04 05:27:19;;;;;;;5.50;4.20;;;6.00;99.90;;;;;;4771339;30;20242;-94
2023/04/04 05:29:47;;;;;;;6.53;4.73;;;5.90;99.90;;;;;;4785375;30;20195;-96
2023/04/04 05:32:12;;;;;;;4.97;3.67;;;5.80;99.90;;;;;;4782354;30;20215;-96
2023/04/04 05:34:38;;;;;;;9.83;5.17;;;5.70;99.90;;;;;;4773290;30;20204;-96
2023/04/04 05:37:04;;;;;;;8.77;5.30;;;5.70;99.90;;;;;;4773299;30;20474;-96
2023/04/04 05:39:30;;;;;;;4.83;4.43;;;5.80;99.90;;;;;;4775219;30;20184;-94
2023/04/04 05:41:55;;;;;;;6.50;4.93;;;5.80;99.90;;;;;;4788303;30;20217;-96
2023/04/04 05:44:21;;;;;;;5.97;4.77;;;5.70;99.90;;;;;;4790519;30;20440;-95
2023/04/04 05:46:47;;;;;;;8.70;5.90;;;5.70;99.90;;;;;;4787435;30;20250;-96
2023/04/04 05:49:13;;;;;;;10.37;5.80;;;5.60;99.90;;;;;;4783006;30;20195;-96
2023/04/04 05:51:38;;;;;;;6.43;4.60;;;5.50;99.90;;;;;;4770563;30;20230;-96
2023/04/04 05:54:06;;;;;;;9.50;6.40;;;5.50;99.90;;;;;;4764998;30;20188;-92
2023/04/04 05:56:32;;;;;;;5.22;4.72;;;5.50;99.90;;;;;;4769666;30;21016;-96
2023/04/04 05:58:58;;;;;;;8.15;5.13;;;5.50;99.90;;;;;;4771419;30;20227;-96
2023/04/04 06:01:24;;;;;;;7.13;5.10;;;5.50;99.90;;;;;;4774316;30;20287;-96
2023/04/04 06:03:51;;;;;;;8.05;5.07;;;5.60;99.90;;;;;;4770562;30;20195;-93
2023/04/04 06:06:17;;;;;;;6.57;5.32;;;5.60;99.90;;;;;;4771280;30;20251;-93
2023/04/04 06:08:43;;;;;;;7.68;5.18;;;5.60;99.90;;;;;;4771932;30;20245;-96
2023/04/04 06:11:08;;;;;;;8.13;5.60;;;5.60;99.90;;;;;;4765831;30;20227;-96
2023/04/04 06:13:34;;;;;;;6.70;6.00;;;5.60;99.90;;;;;;4769609;30;20805;-93
2023/04/04 06:16:00;;;;;;;6.30;5.30;;;5.60;99.90;;;;;;4773007;30;20736;-96
2023/04/04 06:18:26;;;;;;;7.60;4.97;;;5.60;99.90;;;;;;4765877;30;20462;-92
2023/04/04 06:20:52;;;;;;;6.87;4.90;;;5.60;99.90;;;;;;4767282;30;21321;-96
2023/04/04 06:23:19;;;;;;;6.13;4.97;;;5.60;99.90;;;;;;4763068;30;20419;-95
2023/04/04 06:25:46;;;;;;;6.82;5.00;;;5.60;99.90;;;;;;4773046;30;20219;-96
2023/04/04 06:28:14;;;;;;;7.80;5.10;;;5.70;99.90;;;;;;4767299;30;20187;-96
2023/04/04 06:30:40;;;;;;;5.43;4.45;;;5.70;99.90;;;;;;4770766;30;20222;-96
2023/04/04 06:33:06;;;;;;;7.07;4.60;;;5.70;99.90;;;;;;4769544;30;20577;-96
2023/04/04 06:35:32;;;;;;;7.00;4.47;;;5.70;99.90;;;;;;4768907;30;20257;-96
2023/04/04 06:37:58;;;;;;;3.47;2.97;;;5.70;99.90;;;;;;4763649;30;20223;-94
2023/04/04 06:40:23;;;;;;;5.50;4.50;;;5.70;99.90;;;;;;4765346;30;20277;-93
2023/04/04 06:42:57;;;;;;;7.23;4.53;;;5.80;99.90;;;;;;4764986;30;20639;-95
2023/04/04 06:45:27;;;;;;;6.40;4.43;;;5.80;99.90;;;;;;4766029;30;20236;-93
2023/04/04 06:47:53;;;;;;;178.48;87.43;;;5.90;99.90;;;;;;4770386;30;20273;-96
2023/04/04 06:50:21;;;;;;;10.88;4.93;;;5.90;99.90;;;;;;4769139;30;20295;-96
2023/04/04 06:52:48;;;;;;;5.75;4.72;;;6.00;99.90;;;;;;4770583;30;20211;-96
2023/04/04 06:55:14;;;;;;;2.00;1.80;;;6.10;99.90;;;;;;4768111;30;20793;-95
2023/04/04 06:57:40;;;;;;;8.23;4.57;;;6.10;99.90;;;;;;4770307;30;20244;-93
2023/04/04 07:00:06;;;;;;;5.37;4.23;;;6.00;99.90;;;;;;4772128;30;20207;-94
2023/04/04 07:02:32;;;;;;;11.80;4.60;;;6.00;99.90;;;;;;4770445;30;20585;-96
2023/04/04 07:04:58;;;;;;;5.17;4.03;;;6.00;99.90;;;;;;4765058;30;20705;-96
2023/04/04 07:07:24;;;;;;;9.50;4.53;;;6.10;99.90;;;;;;4762753;30;20484;-93
2023/04/04 07:09:51;;;;;;;6.50;3.80;;;6.20;99.90;;;;;;4763010;30;20840;-94
2023/04/04 07:12:17;;;;;;;15.52;4.43;;;6.20;99.90;;;;;;4763907;30;20299;-93
2023/04/04 07:14:43;;;;;;;7.87;6.07;;;6.20;99.90;;;;;;4763294;30;20275;-94
2023/04/04 07:17:08;;;;;;;5.60;2.60;;;6.10;99.90;;;;;;4764920;30;20219;-96
2023/04/04 07:19:34;;;;;;;5.83;3.73;;;6.20;99.90;;;;;;4764448;30;20846;-95
2023/04/04 07:22:00;;;;;;;4.80;4.20;;;6.30;99.90;;;;;;4768010;30;20219;-96
2023/04/04 07:24:25;;;;;;;6.00;4.30;;;6.20;99.90;;;;;;4770508;30;20191;-96
2023/04/04 07:26:51;;;;;;;2.90;2.63;;;6.20;99.90;;;;;;4768797;30;20786;-96
2023/04/04 07:29:22;;;;;;;4.73;3.73;;;6.40;99.90;;;;;;4768173;30;20184;-94
2023/04/04 07:31:48;;;;;;;10.30;4.30;;;6.40;99.90;;;;;;4766423;30;20234;-94
2023/04/04 07:34:14;;;;;;;6.60;4.30;;;6.40;99.90;;;;;;4778013;30;20192;-93
2023/04/04 07:36:41;;;;;;;9.13;4.55;;;6.40;99.90;;;;;;4787639;29;20551;-94
2023/04/04 07:39:06;;;;;;;12.85;4.70;;;6.40;99.90;;;;;;4769412;30;20671;-94
2023/04/04 07:41:32;;;;;;;14.13;4.70;;;6.50;99.90;;;;;;4769679;30;20272;-94
2023/04/04 07:43:58;;;;;;;4.60;3.30;;;6.60;99.90;;;;;;4771869;30;20968;-96
2023/04/04 07:46:26;;;;;;;9.20;4.77;;;6.60;99.90;;;;;;4769594;30;20633;-94
2023/04/04 07:48:52;;;;;;;10.77;4.43;;;6.70;99.90;;;;;;4767870;30;20652;-94
2023/04/04 07:51:22;;;;;;;51.67;20.25;;;6.80;99.90;;;;;;4777038;30;20269;-95
2023/04/04 07:53:48;;;;;;;9.32;5.57;;;6.80;99.90;;;;;;4782237;29;20206;-96
2023/04/04 07:56:14;;;;;;;7.00;3.90;;;6.70;99.90;;;;;;4756881;30;20224;-94
2023/04/04 07:58:40;;;;;;;8.07;3.90;;;6.70;99.90;;;;;;4767837;30;20191;-93
2023/04/04 08:01:06;;;;;;;6.80;3.00;;;6.60;99.90;;;;;;4766000;30;20223;-93
2023/04/04 08:03:31;;;;;;;4.53;3.38;;;6.80;99.90;;;;;;4766130;30;20227;-96
2023/04/04 08:05:57;;;;;;;15.30;5.37;;;6.90;99.90;;;;;;4764227;30;20371;-96
2023/04/04 08:08:23;;;;;;;9.30;4.00;;;6.90;99.90;;;;;;4766620;30;20458;-93
2023/04/04 08:10:49;;;;;;;6.83;1.73;;;6.90;99.90;;;;;;4770766;29;20282;-96
2023/04/04 08:13:15;;;;;;;9.20;4.00;;;6.90;99.90;;;;;;4767517;30;20187;-96
2023/04/04 08:15:41;;;;;;;6.50;3.70;;;7.00;99.90;;;;;;4768455;30;20455;-96
2023/04/04 08:18:07;;;;;;;11.20;4.60;;;7.20;99.90;;;;;;4754942;30;20681;-92
2023/04/04 08:20:32;;;;;;;20.40;4.50;;;7.10;99.90;;;;;;4751132;30;20218;-96
2023/04/04 08:22:58;;;;;;;10.70;4.37;;;7.20;99.90;;;;;;4758394;30;20471;-94
2023/04/04 08:25:24;;;;;;;11.90;4.47;;;7.20;99.90;;;;;;4767378;30;20322;-96
2023/04/04 08:27:50;;;;;;;9.03;4.20;;;7.30;99.90;;;;;;4773484;30;20203;-96
2023/04/04 08:30:16;;;;;;;8.33;3.77;;;7.30;99.90;;;;;;4768795;30;20766;-95
2023/04/04 08:32:46;;;;;;;10.13;4.13;;;7.30;99.90;;;;;;4767009;30;20524;-93
2023/04/04 08:35:12;;;;;;;13.27;4.65;;;7.40;99.90;;;;;;4772732;30;20195;-96
2023/04/04 08:37:38;;;;;;;10.63;3.40;;;7.40;99.90;;;;;;4771288;30;20588;-96
2023/04/04 08:40:05;;;;;;;4.57;3.88;;;7.40;99.90;;;;;;4770955;30;20187;-93
2023/04/04 08:42:35;;;;;;;8.88;4.15;;;7.40;99.90;;;;;;4769122;30;20262;-94
2023/04/04 08:45:03;;;;;;;23.15;4.93;;;7.50;99.90;;;;;;4787904;30;20274;-96
2023/04/04 08:47:31;;;;;;;13.40;4.50;;;7.70;99.90;;;;;;4779037;30;20225;-96
2023/04/04 08:50:04;;;;;;;12.25;3.30;;;7.70;99.90;;;;;;4793008;30;20192;-94
2023/04/04 08:52:31;;;;;;;8.52;2.67;;;7.60;99.90;;;;;;4769466;30;20652;-96
2023/04/04 08:54:58;;;;;;;10.82;4.30;;;7.70;99.90;;;;;;4766127;30;20195;-96
2023/04/04 08:57:23;;;;;;;11.88;1.83;;;8.00;99.90;;;;;;4765872;30;20835;-93
2023/04/04 08:59:49;;;;;;;11.80;5.20;;;8.10;99.90;;;;;;4765630;30;20214;-93
2023/04/04 09:02:45;;;;;;;5.53;3.60;;;8.10;99.90;;;;;;4771056;30;20210;-94
2023/04/04 09:05:12;;;;;;;9.73;3.75;;;8.10;99.90;;;;;;4765220;30;20582;-94
2023/04/04 09:07:39;;;;;;;6.38;3.92;;;8.00;99.90;;;;;;4768448;30;20593;-95
2023/04/04 09:10:09;;;;;;;3.22;2.58;;;8.00;99.90;;;;;;4765550;30;20280;-93
2023/04/04 09:12:39;;;;;;;13.57;3.65;;;8.10;99.90;;;;;;4769644;30;20234;-94
2023/04/04 09:15:05;;;;;;;10.23;3.53;;;8.40;99.90;;;;;;4771018;30;20671;-96
2023/04/04 09:17:31;;;;;;;5.15;3.75;;;8.70;99.90;;;;;;4760147;30;20216;-95
2023/04/04 09:20:03;;;;;;;10.10;4.10;;;8.60;99.90;;;;;;4779556;30;20248;-93
2023/04/04 09:22:29;;;;;;;9.13;3.42;;;8.60;99.90;;;;;;4779665;30;20454;-94
2023/04/04 09:24:55;;;;;;;22.13;4.30;;;8.50;99.90;;;;;;4772126;30;20320;-94
2023/04/04 09:27:21;;;;;;;5.35;3.22;;;8.40;99.90;;;;;;4773452;30;20450;-93
2023/04/04 09:29:47;;;;;;;18.10;4.37;;;8.30;99.90;;;;;;4771231;30;20530;-96
2023/04/04 09:32:21;;;;;;;14.80;4.47;;;8.20;99.90;;;;;;4762974;30;20833;-93
2023/04/04 09:34:47;;;;;;;12.82;3.72;;;8.10;99.90;;;;;;4754296;30;20629;-93
2023/04/04 09:37:15;;;;;;;24.90;4.60;;;8.10;99.90;;;;;;4769086;30;20207;-93
2023/04/04 09:39:42;;;;;;;11.50;5.00;;;8.30;99.90;;;;;;4771773;30;21008;-94
2023/04/04 09:42:08;;;;;;;11.23;4.00;;;8.40;99.90;;;;;;4772507;30;20238;-96
2023/04/04 09:44:35;;;;;;;7.55;3.10;;;8.30;99.90;;;;;;4766033;30;20315;-94
2023/04/04 09:47:40;;;;;;;107.45;36.25;;;8.40;99.90;;;;;;4770880;30;20604;-94
2023/04/04 09:50:06;;;;;;;9.48;4.72;;;8.50;99.90;;;;;;4735689;30;20229;-96
2023/04/04 09:52:36;;;;;;;4.80;4.07;;;8.50;99.90;;;;;;4782589;29;20216;-95
2023/04/04 09:55:04;;;;;;;17.73;7.97;;;8.60;99.90;;;;;;4772563;30;20219;-96
2023/04/04 09:57:31;;;;;;;12.82;4.75;;;8.60;99.90;;;;;;4772248;30;20300;-96
2023/04/04 10:00:03;;;;;;;10.52;4.07;;;8.90;99.90;;;;;;4773315;30;20264;-96
2023/04/04 10:02:30;;;;;;;4.45;2.72;;;8.80;99.90;;;;;;4770003;30;20203;-94
2023/04/04 10:04:56;;;;;;;8.65;4.32;;;8.80;99.90;;;;;;4764474;30;20195;-94
2023/04/04 10:07:29;;;;;;;12.95;4.68;;;8.70;99.90;;;;;;4771291;30;20307;-94
2023/04/04 10:09:55;;;;;;;20.00;4.85;;;8.60;99.90;;;;;;4777983;30;20535;-96
2023/04/04 10:12:24;;;;;;;4.30;3.10;;;8.50;99.90;;;;;;4774557;30;20218;-94
2023/04/04 10:15:00;;;;;;;8.38;3.08;;;8.40;99.90;;;;;;4766442;30;20291;-94
2023/04/04 10:17:30;;;;;;;9.07;4.43;;;8.70;99.90;;;;;;4769871;30;20266;-94
2023/04/04 10:20:02;;;;;;;40.20;14.35;;;8.70;99.90;;;;;;4754620;30;20194;-94
2023/04/04 10:22:29;;;;;;;15.35;5.55;;;8.70;99.90;;;;;;4768802;30;20230;-96
2023/04/04 10:24:55;;;;;;;5.88;3.47;;;8.90;99.90;;;;;;4763328;30;20184;-93
2023/04/04 10:27:21;;;;;;;18.42;4.93;;;9.10;99.90;;;;;;4762727;30;20694;-96
2023/04/04 10:29:46;;;;;;;4.43;2.07;;;9.20;99.90;;;;;;4753809;30;20184;-96
2023/04/04 10:32:31;;;;;;;12.23;3.33;;;9.30;99.90;;;;;;4765869;30;20467;-95
2023/04/04 10:35:03;;;;;;;4.68;1.63;;;9.40;99.90;;;;;;4769386;30;20563;-94
2023/04/04 10:37:36;;;;;;;3.20;2.08;;;9.60;99.90;;;;;;4772949;30;20215;-94
2023/04/04 10:40:20;;;;;;;11.82;4.40;;;9.60;99.90;;;;;;4775699;30;20179;-96
2023/04/04 10:42:48;;;;;;;4.00;2.28;;;9.60;99.90;;;;;;4774168;30;20293;-94
2023/04/04 10:45:16;;;;;;;6.55;2.75;;;9.60;99.90;;;;;;4768858;30;20223;-96
2023/04/04 10:47:43;;;;;;;18.75;5.80;;;9.80;99.90;;;;;;4767868;30;20470;-96
2023/04/04 10:50:11;;;;;;;15.52;2.70;;;9.80;99.90;;;;;;4769302;30;20740;-96
2023/04/04 10:52:39;;;;;;;3.45;2.03;;;9.80;99.90;;;;;;4775518;29;20223;-96
2023/04/04 10:55:10;;;;;;;3.45;2.78;;;9.90;99.90;;;;;;4771722;30;20194;-94
2023/04/04 10:57:39;;;;;;;11.30;4.10;;;10.00;99.90;;;;;;4775345;30;20542;-94
2023/04/04 11:00:16;;;;;;;15.38;4.15;;;9.90;99.90;;;;;;4770726;30;20198;-96
2023/04/04 11:02:45;;;;;;;10.93;3.97;;;9.70;99.90;;;;;;4766751;30;20290;-96
2023/04/04 11:05:39;;;;;;;19.65;4.65;;;9.50;99.90;;;;;;4767323;30;20341;-93
2023/04/04 11:08:09;;;;;;;24.05;5.15;;;9.40;99.90;;;;;;4768017;30;20318;-94
2023/04/04 11:10:49;;;;;;;8.43;4.53;;;9.30;99.90;;;;;;4769867;30;20223;-93
2023/04/04 11:13:15;;;;;;;5.55;3.05;;;9.30;99.90;;;;;;4775343;30;20191;-95
2023/04/04 11:15:56;;;;;;;27.57;5.20;;;9.20;99.90;;;;;;4772269;30;20197;-94
2023/04/04 11:18:42;;;;;;;13.52;3.80;;;9.20;99.90;;;;;;4777288;30;20187;-94
2023/04/04 11:21:12;;;;;;;13.00;3.90;;;9.30;99.90;;;;;;4770018;29;20242;-96
2023/04/04 11:23:58;;;;;;;7.95;2.35;;;9.20;99.90;;;;;;4766720;30;20248;-95
2023/04/04 11:26:27;;;;;;;9.93;4.50;;;9.10;99.90;;;;;;4768378;30;20294;-93
2023/04/04 11:28:57;;;;;;;20.45;5.43;;;9.00;99.90;;;;;;4788537;29;20243;-93
2023/04/04 11:31:28;;;;;;;4.65;3.72;;;9.10;99.90;;;;;;4761088;30;20218;-96
2023/04/04 11:34:08;;;;;;;5.88;3.15;;;9.00;99.90;;;;;;4762947;29;20348;-94
2023/04/04 11:36:43;;;;;;;26.25;4.90;;;8.90;99.90;;;;;;4764748;30;20203;-94
2023/04/04 11:39:23;;;;;;;24.20;4.53;;;8.80;99.90;;;;;;4766567;30;20192;-96
2023/04/04 11:42:09;;;;;;;17.25;4.43;;;8.80;99.90;;;;;;4768077;29;20246;-94
2023/04/04 11:44:53;;;;;;;11.95;4.43;;;8.70;99.90;;;;;;4761223;30;20198;-93
2023/04/04 11:47:22;;;;;;;17.65;5.30;;;8.70;99.90;;;;;;4772626;29;20219;-96
2023/04/04 11:49:49;;;;;;;12.80;6.38;;;8.80;99.90;;;;;;4763616;30;20195;-96
2023/04/04 11:52:16;;;;;;;16.00;5.10;;;8.80;99.90;;;;;;4766452;30;20212;-94
2023/04/04 11:54:45;;;;;;;9.10;4.63;;;8.90;99.90;;;;;;4766317;30;20188;-94
2023/04/04 11:57:15;;;;;;;18.45;5.50;;;8.90;99.90;;;;;;4766256;30;20243;-95
2023/04/04 11:59:46;;;;;;;14.50;5.30;;;8.80;99.90;;;;;;4761830;30;20191;-96
2023/04/04 12:02:20;;;;;;;19.42;5.40;;;8.80;99.90;;;;;;4766541;30;20571;-93
2023/04/04 12:04:46;;;;;;;15.95;5.07;;;8.80;99.90;;;;;;4766151;30;20252;-93
2023/04/04 12:07:14;;;;;;;18.08;5.43;;;8.80;99.90;;;;;;4771221;30;20285;-94
2023/04/04 12:09:41;;;;;;;17.55;5.75;;;8.80;99.90;;;;;;4781392;29;20199;-95
2023/04/04 12:12:11;;;;;;;10.07;4.38;;;8.80;99.90;;;;;;4767926;30;20211;-95
2023/04/04 12:14:38;;;;;;;12.57;4.50;;;8.70;99.90;;;;;;4777080;30;20565;-94
2023/04/04 12:17:04;;;;;;;18.33;5.03;;;8.70;99.90;;;;;;4770507;30;20210;-94
2023/04/04 12:19:34;;;;;;;14.82;4.47;;;8.80;99.90;;;;;;4770363;30;20263;-94
2023/04/04 12:22:01;;;;;;;15.27;4.57;;;8.80;99.90;;;;;;4768851;30;20290;-95
2023/04/04 12:24:27;;;;;;;26.73;6.10;;;8.80;99.90;;;;;;4756954;30;20196;-95
2023/04/04 12:26:53;;;;;;;13.53;5.23;;;8.90;99.90;;;;;;4769619;30;20234;-95
2023/04/04 12:29:22;;;;;;;11.73;4.72;;;9.00;99.90;;;;;;4766087;30;20204;-94
2023/04/04 12:31:49;;;;;;;13.48;4.95;;;8.90;99.90;;;;;;4768291;30;20288;-94
2023/04/04 12:34:21;;;;;;;12.05;4.25;;;8.80;99.90;;;;;;4761703;30;20227;-96
2023/04/04 12:36:54;;;;;;;13.90;4.78;;;8.80;99.90;;;;;;4767157;30;20298;-96
2023/04/04 12:39:21;;;;;;;10.32;3.20;;;8.90;99.90;;;;;;4784116;29;20201;-94
2023/04/04 12:41:54;;;;;;;12.93;4.93;;;9.00;99.90;;;;;;4774097;30;20215;-93
2023/04/04 12:44:29;;;;;;;4.20;2.35;;;9.10;99.90;;;;;;4789684;29;20620;-96
2023/04/04 12:47:00;;;;;;;10.50;4.07;;;9.10;99.90;;;;;;4783088;29;20232;-94
2023/04/04 12:49:48;;;;;;;7.05;4.15;;;9.10;99.90;;;;;;4770008;30;20196;-96
2023/04/04 12:52:25;;;;;;;14.18;4.22;;;8.90;99.90;;;;;;4770508;30;20750;-94
2023/04/04 12:54:51;;;;;;;7.88;4.30;;;8.90;99.90;;;;;;4785724;30;20538;-94
2023/04/04 12:57:23;;;;;;;6.13;3.83;;;8.90;99.90;;;;;;4764917;30;20218;-96